Time;durP1;ratioP1;P1;durP2;ratioP2;P2;SDS_P1;SDS_P2;PMS_P1;PMS_P2;Temp;Humidity;BMP_temperature;BMP_pressure;BME280_temperature;BME280_humidity;BME280_pressure;Samples;Min_cycle;Max_cycle;Signal;HPM_P1;HPM_P2
2023/02/20 00:00:48;;;;;;;18.23;8.37;;;;;;;;;;4961605;28;20286;-74
2023/02/20 00:03:15;;;;;;;17.30;8.50;;;;;;;;;;4974118;28;20762;-74
2023/02/20 00:05:43;;;;;;;19.93;9.30;;;;;;;;;;4974189;28;20288;-74
2023/02/20 00:08:10;;;;;;;17.87;9.60;;;;;;;;;;4973616;28;20226;-75
2023/02/20 00:10:37;;;;;;;21.47;9.80;;;;;;;;;;4973977;28;20226;-73
2023/02/20 00:13:06;;;;;;;16.87;9.50;;;;;;;;;;4958128;28;20294;-75
2023/02/20 00:15:33;;;;;;;22.57;9.03;;;;;;;;;;4954602;29;20231;-75
2023/02/20 00:18:00;;;;;;;17.80;8.40;;;;;;;;;;4953865;29;20253;-74
2023/02/20 00:20:29;;;;;;;18.17;7.97;;;;;;;;;;4954723;29;20293;-74
2023/02/20 00:22:56;;;;;;;16.33;7.80;;;;;;;;;;4954151;29;20607;-74
2023/02/20 00:25:23;;;;;;;14.67;7.33;;;;;;;;;;4954721;29;20682;-74
2023/02/20 00:27:51;;;;;;;18.37;7.73;;;;;;;;;;4954058;29;20285;-74
2023/02/20 00:30:21;;;;;;;25.10;9.27;;;;;;;;;;4954157;29;20295;-73
2023/02/20 00:32:49;;;;;;;23.20;9.10;;;;;;;;;;4954300;28;20707;-74
2023/02/20 00:35:17;;;;;;;18.23;8.83;;;;;;;;;;4953753;29;20297;-74
2023/02/20 00:37:44;;;;;;;21.17;8.30;;;;;;;;;;4953199;29;20685;-74
2023/02/20 00:40:12;;;;;;;28.67;9.27;;;;;;;;;;4953683;29;20628;-73
2023/02/20 00:42:39;;;;;;;20.97;9.43;;;;;;;;;;4954108;28;20225;-74
2023/02/20 00:45:07;;;;;;;16.10;8.43;;;;;;;;;;4953881;28;20669;-73
2023/02/20 00:47:36;;;;;;;30.20;10.10;;;;;;;;;;4954070;28;20202;-74
2023/02/20 00:50:03;;;;;;;28.20;10.20;;;;;;;;;;4946224;28;20226;-74
2023/02/20 00:52:30;;;;;;;49.07;10.57;;;;;;;;;;4952964;29;20234;-74
2023/02/20 00:54:57;;;;;;;41.30;10.33;;;;;;;;;;4954113;29;20242;-74
2023/02/20 00:57:24;;;;;;;21.73;9.10;;;;;;;;;;4953826;29;20298;-74
2023/02/20 00:59:52;;;;;;;29.10;9.30;;;;;;;;;;4953985;29;20219;-74
2023/02/20 01:02:19;;;;;;;41.60;10.70;;;;;;;;;;4952935;29;20213;-74
2023/02/20 01:04:47;;;;;;;24.03;9.23;;;;;;;;;;4953201;29;20644;-74
2023/02/20 01:07:15;;;;;;;17.90;8.93;;;;;;;;;;4953655;29;20296;-74
2023/02/20 01:09:42;;;;;;;28.33;9.13;;;;;;;;;;4953716;29;20298;-74
2023/02/20 01:12:09;;;;;;;23.13;9.67;;;;;;;;;;4953889;28;20233;-75
2023/02/20 01:14:37;;;;;;;31.87;9.57;;;;;;;;;;4953702;29;20293;-73
2023/02/20 01:17:04;;;;;;;26.23;9.20;;;;;;;;;;4953715;29;20230;-74
2023/02/20 01:19:31;;;;;;;23.53;8.80;;;;;;;;;;4953558;29;20207;-74
2023/02/20 01:22:01;;;;;;;34.73;9.93;;;;;;;;;;4953106;29;20294;-74
2023/02/20 01:24:28;;;;;;;22.17;9.00;;;;;;;;;;4953515;29;20285;-73
2023/02/20 01:26:56;;;;;;;15.23;8.87;;;;;;;;;;4953147;29;20332;-74
2023/02/20 01:29:23;;;;;;;20.03;8.53;;;;;;;;;;4953236;29;20582;-74
2023/02/20 01:31:50;;;;;;;18.27;8.67;;;;;;;;;;4953503;29;20253;-74
2023/02/20 01:34:18;;;;;;;21.63;8.70;;;;;;;;;;4953076;29;20233;-74
2023/02/20 01:36:48;;;;;;;15.47;8.03;;;;;;;;;;4952708;29;20301;-74
2023/02/20 01:39:18;;;;;;;20.70;8.10;;;;;;;;;;4953469;28;20640;-74
2023/02/20 01:41:47;;;;;;;33.10;9.40;;;;;;;;;;4953264;28;20292;-74
2023/02/20 01:44:18;;;;;;;18.83;8.23;;;;;;;;;;4952997;29;20217;-74
2023/02/20 01:46:50;;;;;;;14.87;8.10;;;;;;;;;;4950377;29;20342;-74
2023/02/20 01:49:19;;;;;;;12.40;7.90;;;;;;;;;;4952552;28;20304;-74
2023/02/20 01:51:48;;;;;;;24.60;8.30;;;;;;;;;;4952908;29;20286;-74
2023/02/20 01:54:17;;;;;;;16.00;7.93;;;;;;;;;;4953131;29;20237;-73
2023/02/20 01:56:46;;;;;;;17.60;7.80;;;;;;;;;;4952742;29;20411;-74
2023/02/20 01:59:14;;;;;;;23.63;7.93;;;;;;;;;;4952868;29;20272;-74
2023/02/20 02:01:41;;;;;;;12.27;7.73;;;;;;;;;;4953607;28;20300;-74
2023/02/20 02:04:10;;;;;;;12.47;7.43;;;;;;;;;;4956783;29;20244;-74
2023/02/20 02:06:39;;;;;;;11.03;7.47;;;;;;;;;;4956994;28;20324;-74
2023/02/20 02:09:10;;;;;;;14.57;8.37;;;;;;;;;;4954603;29;20317;-74
2023/02/20 02:11:37;;;;;;;15.57;8.60;;;;;;;;;;4955764;28;20293;-73
2023/02/20 02:14:06;;;;;;;12.90;8.07;;;;;;;;;;4956689;29;20246;-74
2023/02/20 02:16:37;;;;;;;12.30;8.20;;;;;;;;;;4956538;29;20622;-74
2023/02/20 02:19:09;;;;;;;14.37;7.60;;;;;;;;;;4956471;29;20234;-74
2023/02/20 02:21:55;;;;;;;13.40;7.70;;;;;;;;;;4956731;28;20301;-74
2023/02/20 02:24:36;;;;;;;12.37;7.33;;;;;;;;;;4956686;29;20300;-73
2023/02/20 02:27:28;;;;;;;15.00;7.13;;;;;;;;;;4956332;29;20319;-74
2023/02/20 02:30:15;;;;;;;19.93;7.30;;;;;;;;;;4956284;28;20293;-74
2023/02/20 02:32:52;;;;;;;23.17;7.80;;;;;;;;;;4956131;29;20293;-73
2023/02/20 02:35:25;;;;;;;16.00;7.83;;;;;;;;;;4955276;29;20666;-73
2023/02/20 02:37:59;;;;;;;16.37;7.83;;;;;;;;;;4956428;28;20201;-73
2023/02/20 02:40:29;;;;;;;21.40;8.20;;;;;;;;;;4956231;28;20201;-74
2023/02/20 02:43:02;;;;;;;14.03;7.60;;;;;;;;;;4956442;28;20304;-74
2023/02/20 02:45:34;;;;;;;11.00;7.30;;;;;;;;;;4956434;29;20805;-74
2023/02/20 02:48:06;;;;;;;10.93;8.20;;;;;;;;;;4955694;29;20296;-74
2023/02/20 02:50:35;;;;;;;12.13;7.60;;;;;;;;;;4956305;28;20232;-74
2023/02/20 02:53:04;;;;;;;10.40;7.33;;;;;;;;;;4955885;29;20233;-74
2023/02/20 02:55:33;;;;;;;17.13;8.07;;;;;;;;;;4956021;28;20204;-73
2023/02/20 02:58:00;;;;;;;14.30;7.67;;;;;;;;;;4956031;29;20208;-74
2023/02/20 03:00:30;;;;;;;14.17;8.03;;;;;;;;;;4954482;29;20248;-74
2023/02/20 03:02:59;;;;;;;19.10;8.57;;;;;;;;;;4956026;29;20293;-74
2023/02/20 03:05:38;;;;;;;11.03;7.93;;;;;;;;;;4956107;29;20237;-74
2023/02/20 03:08:13;;;;;;;12.03;7.60;;;;;;;;;;4956364;28;20297;-73
2023/02/20 03:10:41;;;;;;;11.87;7.87;;;;;;;;;;4955723;29;20210;-74
2023/02/20 03:13:11;;;;;;;23.83;8.37;;;;;;;;;;4965041;28;20300;-75
2023/02/20 03:15:39;;;;;;;14.67;7.63;;;;;;;;;;4975065;28;20340;-73
2023/02/20 03:18:14;;;;;;;18.73;7.47;;;;;;;;;;4975168;28;20555;-74
2023/02/20 03:20:43;;;;;;;12.33;6.73;;;;;;;;;;4974850;28;20260;-74
2023/02/20 03:23:13;;;;;;;13.07;7.30;;;;;;;;;;4975042;28;20202;-74
2023/02/20 03:25:42;;;;;;;14.67;7.00;;;;;;;;;;4972958;28;20229;-74
2023/02/20 03:28:11;;;;;;;18.80;7.63;;;;;;;;;;4955589;29;20241;-73
2023/02/20 03:30:42;;;;;;;15.87;7.57;;;;;;;;;;4955055;28;20292;-73
2023/02/20 03:44:18;;;;;;;22.77;8.20;;;;;;;;;;4954920;29;20300;-73
2023/02/20 03:46:48;;;;;;;27.17;8.93;;;;;;;;;;4954802;29;20332;-74
2023/02/20 03:49:18;;;;;;;21.23;9.10;;;;;;;;;;4954983;29;20300;-74
2023/02/20 03:51:45;;;;;;;18.83;8.57;;;;;;;;;;4955319;28;20210;-73
2023/02/20 03:54:15;;;;;;;25.90;9.10;;;;;;;;;;4954853;29;20301;-73
2023/02/20 03:56:43;;;;;;;38.83;10.03;;;;;;;;;;4954062;29;20218;-74
2023/02/20 03:59:14;;;;;;;35.93;9.03;;;;;;;;;;4954624;29;20234;-73
2023/02/20 04:01:42;;;;;;;30.70;9.57;;;;;;;;;;4955106;28;20289;-74
2023/02/20 04:04:12;;;;;;;45.03;9.10;;;;;;;;;;4954872;29;20287;-74
2023/02/20 04:06:41;;;;;;;55.27;10.33;;;;;;;;;;4954566;29;20674;-74
2023/02/20 04:09:10;;;;;;;47.47;10.57;;;;;;;;;;4954937;29;20266;-73
2023/02/20 04:11:41;;;;;;;44.27;9.10;;;;;;;;;;4954901;28;20245;-74
2023/02/20 04:14:09;;;;;;;59.13;10.07;;;;;;;;;;4954862;29;20202;-74
2023/02/20 04:16:38;;;;;;;46.13;8.47;;;;;;;;;;4954733;29;20285;-74
2023/02/20 04:19:05;;;;;;;32.77;8.20;;;;;;;;;;4954778;29;20234;-74
2023/02/20 04:21:34;;;;;;;25.17;8.00;;;;;;;;;;4954952;29;20611;-74
2023/02/20 04:24:04;;;;;;;26.17;7.77;;;;;;;;;;4953881;29;20297;-74
2023/02/20 04:26:31;;;;;;;25.20;7.77;;;;;;;;;;4954019;28;20325;-73
2023/02/20 04:29:00;;;;;;;20.80;7.57;;;;;;;;;;4954263;29;20226;-74
2023/02/20 04:31:27;;;;;;;23.93;7.20;;;;;;;;;;4953970;29;20301;-74
2023/02/20 04:33:54;;;;;;;12.10;6.67;;;;;;;;;;4954736;29;20286;-74
2023/02/20 04:36:22;;;;;;;8.50;6.27;;;;;;;;;;4954153;29;20293;-74
2023/02/20 04:38:49;;;;;;;13.53;6.30;;;;;;;;;;4954226;29;20233;-74
2023/02/20 04:41:16;;;;;;;17.20;6.97;;;;;;;;;;4954066;29;20240;-73
2023/02/20 04:43:43;;;;;;;9.67;6.10;;;;;;;;;;4953827;29;20240;-74
2023/02/20 04:46:12;;;;;;;9.63;6.53;;;;;;;;;;4953844;29;20325;-74
2023/02/20 04:48:39;;;;;;;11.67;6.73;;;;;;;;;;4953682;28;21127;-74
2023/02/20 04:51:06;;;;;;;9.63;6.63;;;;;;;;;;4953917;28;20293;-74
2023/02/20 04:53:33;;;;;;;10.60;6.30;;;;;;;;;;4953237;28;20292;-74
2023/02/20 04:56:01;;;;;;;12.70;6.40;;;;;;;;;;4954145;29;20238;-74
2023/02/20 04:58:28;;;;;;;9.50;6.10;;;;;;;;;;4953097;28;20229;-73
2023/02/20 05:00:55;;;;;;;10.93;6.30;;;;;;;;;;4953684;29;20292;-74
2023/02/20 05:03:24;;;;;;;11.27;6.47;;;;;;;;;;4953925;28;20235;-74
2023/02/20 05:05:51;;;;;;;16.00;6.73;;;;;;;;;;4973202;28;20201;-74
2023/02/20 05:08:18;;;;;;;11.00;6.33;;;;;;;;;;4973116;28;20287;-74
2023/02/20 05:10:47;;;;;;;16.53;6.80;;;;;;;;;;4972745;28;20221;-74
2023/02/20 05:13:14;;;;;;;15.33;7.13;;;;;;;;;;4955400;28;20252;-73
2023/02/20 05:15:41;;;;;;;13.30;6.93;;;;;;;;;;4953857;29;20685;-74
2023/02/20 05:18:08;;;;;;;10.57;5.97;;;;;;;;;;4953752;28;20286;-74
2023/02/20 05:23:22;;;;;;;11.03;6.57;;;;;;;;;;4952640;28;20228;-74
2023/02/20 05:25:49;;;;;;;20.07;6.43;;;;;;;;;;4952836;28;20298;-74
2023/02/20 05:28:16;;;;;;;17.97;6.67;;;;;;;;;;4953610;29;20802;-74
2023/02/20 05:30:43;;;;;;;9.90;6.33;;;;;;;;;;4953462;28;20282;-73
2023/02/20 05:33:10;;;;;;;12.80;6.27;;;;;;;;;;4953354;28;20285;-73
2023/02/20 05:35:40;;;;;;;21.00;7.30;;;;;;;;;;4953181;29;20293;-74
2023/02/20 05:38:07;;;;;;;14.77;6.90;;;;;;;;;;4952517;29;20300;-74
2023/02/20 05:40:35;;;;;;;19.03;6.37;;;;;;;;;;4953160;29;20244;-73
2023/02/20 05:43:02;;;;;;;15.77;6.10;;;;;;;;;;4953866;29;20206;-74
2023/02/20 05:45:29;;;;;;;17.07;6.30;;;;;;;;;;4952919;29;20317;-74
2023/02/20 05:47:57;;;;;;;17.73;6.50;;;;;;;;;;4953336;28;20333;-74
2023/02/20 05:50:24;;;;;;;22.20;7.07;;;;;;;;;;4953032;28;20202;-74
2023/02/20 05:52:52;;;;;;;20.80;6.10;;;;;;;;;;4951936;29;20718;-73
2023/02/20 05:55:19;;;;;;;15.90;6.37;;;;;;;;;;4952448;28;20293;-74
2023/02/20 05:57:47;;;;;;;31.67;6.37;;;;;;;;;;4952859;29;20299;-74
2023/02/20 06:00:14;;;;;;;31.13;7.00;;;;;;;;;;4952939;28;20244;-74
2023/02/20 06:02:41;;;;;;;21.90;6.40;;;;;;;;;;4952890;28;20289;-73
2023/02/20 06:05:09;;;;;;;31.17;7.10;;;;;;;;;;4953447;28;20233;-73
2023/02/20 06:07:36;;;;;;;25.53;6.33;;;;;;;;;;4953059;29;20332;-74
2023/02/20 06:10:05;;;;;;;21.50;7.07;;;;;;;;;;4952911;28;20289;-74
2023/02/20 06:12:32;;;;;;;36.13;7.20;;;;;;;;;;4952981;28;20301;-73
2023/02/20 06:14:59;;;;;;;26.30;6.47;;;;;;;;;;4952847;29;20746;-74
2023/02/20 06:17:28;;;;;;;20.40;6.90;;;;;;;;;;4952961;28;20718;-74
2023/02/20 06:19:55;;;;;;;26.77;7.53;;;;;;;;;;4952948;29;20775;-73
2023/02/20 06:22:22;;;;;;;22.03;6.43;;;;;;;;;;4952200;29;20653;-73
2023/02/20 06:24:50;;;;;;;17.37;6.47;;;;;;;;;;4952592;29;20222;-74
2023/02/20 06:27:18;;;;;;;28.90;7.27;;;;;;;;;;4952345;29;20329;-73
2023/02/20 06:29:47;;;;;;;25.33;6.30;;;;;;;;;;4952733;29;20238;-74
2023/02/20 06:32:14;;;;;;;25.80;6.60;;;;;;;;;;4953289;29;20294;-74
2023/02/20 06:34:41;;;;;;;16.77;5.93;;;;;;;;;;4952767;29;20246;-74
2023/02/20 06:37:08;;;;;;;26.20;6.30;;;;;;;;;;4952786;29;20301;-74
2023/02/20 06:39:36;;;;;;;30.83;6.67;;;;;;;;;;4952223;29;20238;-73
2023/02/20 06:42:03;;;;;;;26.20;6.00;;;;;;;;;;4952896;29;20207;-74
2023/02/20 06:44:32;;;;;;;32.40;6.10;;;;;;;;;;4952672;29;20256;-74
2023/02/20 06:47:00;;;;;;;34.00;6.20;;;;;;;;;;4952318;29;20258;-74
2023/02/20 06:49:27;;;;;;;40.23;6.03;;;;;;;;;;4955862;28;20198;-74
2023/02/20 06:51:55;;;;;;;59.83;5.90;;;;;;;;;;4955586;28;20289;-74
2023/02/20 06:54:22;;;;;;;43.27;6.73;;;;;;;;;;4955471;28;20756;-74
2023/02/20 06:56:50;;;;;;;95.67;26.63;;;;;;;;;;4955982;29;20245;-74
2023/02/20 06:59:17;;;;;;;136.40;38.03;;;;;;;;;;4955881;29;20203;-74
2023/02/20 07:01:45;;;;;;;101.80;36.43;;;;;;;;;;4956218;29;20233;-75
2023/02/20 07:04:16;;;;;;;49.03;9.00;;;;;;;;;;4956146;29;20298;-73
2023/02/20 07:06:43;;;;;;;45.70;6.23;;;;;;;;;;4955562;28;20234;-74
2023/02/20 07:09:11;;;;;;;37.37;5.20;;;;;;;;;;4955994;29;20231;-74
2023/02/20 07:11:38;;;;;;;33.47;5.40;;;;;;;;;;4955561;28;20767;-75
2023/02/20 07:14:05;;;;;;;25.83;4.20;;;;;;;;;;4955558;29;20631;-75
2023/02/20 07:16:32;;;;;;;48.57;4.83;;;;;;;;;;4955182;29;20285;-74
2023/02/20 07:19:01;;;;;;;37.17;4.07;;;;;;;;;;4955731;29;20278;-74
2023/02/20 07:21:28;;;;;;;25.30;4.50;;;;;;;;;;4954752;29;20297;-74
2023/02/20 07:23:55;;;;;;;22.53;3.50;;;;;;;;;;4955425;29;20751;-74
2023/02/20 07:26:24;;;;;;;19.73;3.70;;;;;;;;;;4955323;29;20294;-75
2023/02/20 07:28:51;;;;;;;27.10;4.43;;;;;;;;;;4955555;29;20238;-74
2023/02/20 07:31:18;;;;;;;36.93;4.23;;;;;;;;;;4955660;28;20293;-74
2023/02/20 07:33:45;;;;;;;27.10;3.73;;;;;;;;;;4955567;29;20289;-73
2023/02/20 07:36:15;;;;;;;34.80;5.90;;;;;;;;;;4954989;29;20195;-73
2023/02/20 07:38:42;;;;;;;25.37;5.40;;;;;;;;;;4955093;28;20745;-73
2023/02/20 07:41:10;;;;;;;41.37;5.77;;;;;;;;;;4955505;29;20256;-74
2023/02/20 07:43:37;;;;;;;32.83;4.97;;;;;;;;;;4955423;29;20286;-74
2023/02/20 07:46:04;;;;;;;30.23;5.57;;;;;;;;;;4954672;29;20333;-74
2023/02/20 07:48:33;;;;;;;20.87;4.57;;;;;;;;;;4955061;29;20238;-74
2023/02/20 07:51:00;;;;;;;37.17;5.77;;;;;;;;;;4954571;28;20209;-75
2023/02/20 07:53:29;;;;;;;37.77;5.20;;;;;;;;;;4963484;28;20338;-75
2023/02/20 07:55:56;;;;;;;34.73;6.30;;;;;;;;;;4974723;28;20233;-75
2023/02/20 07:58:24;;;;;;;38.73;6.43;;;;;;;;;;4973789;28;20286;-75
2023/02/20 08:00:52;;;;;;;32.77;7.03;;;;;;;;;;4973753;28;20194;-75
2023/02/20 08:03:20;;;;;;;31.70;6.27;;;;;;;;;;4974119;28;20199;-75
2023/02/20 08:05:47;;;;;;;58.77;5.97;;;;;;;;;;4974070;28;20293;-75
2023/02/20 08:08:14;;;;;;;25.13;5.47;;;;;;;;;;4974145;28;20321;-75
2023/02/20 08:10:43;;;;;;;60.37;6.50;;;;;;;;;;4973867;28;20948;-74
2023/02/20 08:13:10;;;;;;;36.77;5.37;;;;;;;;;;4957323;28;20303;-73
2023/02/20 08:15:37;;;;;;;38.63;7.00;;;;;;;;;;4954903;29;20290;-75
2023/02/20 08:18:04;;;;;;;44.23;5.27;;;;;;;;;;4954086;28;20243;-74
2023/02/20 08:20:31;;;;;;;68.00;6.50;;;;;;;;;;4954193;29;20235;-75
2023/02/20 08:22:59;;;;;;;46.30;6.30;;;;;;;;;;4954237;29;20235;-75
2023/02/20 08:25:27;;;;;;;144.40;11.77;;;;;;;;;;4954428;29;20202;-74
2023/02/20 08:27:55;;;;;;;36.13;6.53;;;;;;;;;;4949542;28;20316;-76
2023/02/20 08:30:23;;;;;;;27.93;6.77;;;;;;;;;;4951745;28;20242;-74
2023/02/20 08:32:51;;;;;;;37.53;6.90;;;;;;;;;;4954219;28;20286;-73
2023/02/20 08:35:18;;;;;;;40.07;5.97;;;;;;;;;;4952963;28;20650;-75
2023/02/20 08:37:45;;;;;;;45.90;6.87;;;;;;;;;;4953217;28;20205;-81
2023/02/20 08:40:12;;;;;;;60.20;7.13;;;;;;;;;;4954274;28;20336;-79
2023/02/20 08:42:40;;;;;;;62.90;6.80;;;;;;;;;;4954161;28;20228;-84
2023/02/20 08:45:09;;;;;;;26.97;6.10;;;;;;;;;;4954633;28;20235;-83
2023/02/20 08:47:36;;;;;;;41.53;6.03;;;;;;;;;;4954531;28;20284;-83
2023/02/20 08:50:04;;;;;;;24.90;6.43;;;;;;;;;;4954273;29;20227;-82
2023/02/20 08:52:31;;;;;;;31.80;6.83;;;;;;;;;;4954447;28;20284;-83
2023/02/20 08:54:58;;;;;;;28.13;5.63;;;;;;;;;;4954960;29;20244;-84
2023/02/20 08:57:25;;;;;;;32.80;5.13;;;;;;;;;;4954318;29;20682;-83
2023/02/20 08:59:52;;;;;;;21.27;4.97;;;;;;;;;;4954338;28;20234;-83
2023/02/20 09:02:23;;;;;;;54.33;5.80;;;;;;;;;;4954418;28;20620;-84
2023/02/20 09:04:50;;;;;;;32.90;6.27;;;;;;;;;;4954735;29;20261;-83
2023/02/20 09:07:17;;;;;;;54.40;7.20;;;;;;;;;;4954157;29;20238;-83
2023/02/20 09:09:44;;;;;;;52.83;7.53;;;;;;;;;;4954446;29;20243;-83
2023/02/20 09:12:12;;;;;;;33.03;7.50;;;;;;;;;;4963079;28;20241;-83
2023/02/20 09:14:39;;;;;;;30.63;6.00;;;;;;;;;;4973515;28;20285;-83
2023/02/20 09:17:06;;;;;;;16.87;5.43;;;;;;;;;;4973223;28;20672;-83
2023/02/20 09:19:35;;;;;;;15.13;5.27;;;;;;;;;;4973261;28;20297;-83
2023/02/20 09:22:02;;;;;;;28.53;5.73;;;;;;;;;;4973605;28;20298;-83
2023/02/20 09:24:32;;;;;;;17.07;5.63;;;;;;;;;;4972822;28;20299;-83
2023/02/20 09:27:01;;;;;;;40.53;6.50;;;;;;;;;;4973508;28;20206;-83
2023/02/20 09:29:28;;;;;;;32.93;6.30;;;;;;;;;;4973118;28;20321;-83
2023/02/20 09:31:55;;;;;;;40.77;6.00;;;;;;;;;;4972936;28;20253;-84
2023/02/20 09:34:23;;;;;;;30.20;6.47;;;;;;;;;;4956825;28;20607;-80
2023/02/20 09:36:51;;;;;;;12.97;5.90;;;;;;;;;;4936118;29;20303;-80
2023/02/20 09:39:18;;;;;;;22.70;6.00;;;;;;;;;;4934226;29;20290;-81
2023/02/20 09:41:55;;;;;;;28.00;6.73;;;;;;;;;;4934523;29;20219;-80
2023/02/20 09:44:26;;;;;;;28.27;6.90;;;;;;;;;;4934552;29;20219;-80
2023/02/20 09:46:54;;;;;;;18.13;6.43;;;;;;;;;;4933798;29;20315;-80
2023/02/20 09:49:24;;;;;;;24.30;6.10;;;;;;;;;;4934249;29;20235;-80
2023/02/20 09:51:54;;;;;;;11.30;5.37;;;;;;;;;;4934285;29;20575;-80
2023/02/20 09:54:23;;;;;;;26.00;5.40;;;;;;;;;;4934419;29;20296;-80
2023/02/20 09:56:51;;;;;;;58.27;6.70;;;;;;;;;;4933999;29;20259;-81
2023/02/20 09:59:21;;;;;;;27.90;5.93;;;;;;;;;;4934235;29;20227;-80
2023/02/20 10:01:53;;;;;;;22.13;6.37;;;;;;;;;;4933753;29;20234;-79
2023/02/20 10:04:22;;;;;;;49.80;6.87;;;;;;;;;;4933937;29;20203;-81
2023/02/20 10:06:51;;;;;;;22.10;6.03;;;;;;;;;;4934409;29;20246;-80
2023/02/20 10:09:19;;;;;;;49.73;6.87;;;;;;;;;;4933796;29;20335;-81
2023/02/20 10:11:50;;;;;;;27.30;7.33;;;;;;;;;;4939663;28;20223;-80
2023/02/20 10:14:43;;;;;;;25.83;8.53;;;;;;;;;;4953468;28;20203;-80
2023/02/20 10:17:14;;;;;;;21.27;6.40;;;;;;;;;;4934478;29;20701;-81
2023/02/20 10:19:45;;;;;;;28.67;6.63;;;;;;;;;;4953064;29;20233;-81
2023/02/20 10:22:14;;;;;;;10.07;6.43;;;;;;;;;;4953192;28;20238;-80
2023/02/20 10:24:47;;;;;;;13.87;5.90;;;;;;;;;;4956580;29;20244;-81
2023/02/20 10:27:20;;;;;;;15.43;6.13;;;;;;;;;;4956686;28;20258;-81
2023/02/20 10:29:47;;;;;;;21.23;5.63;;;;;;;;;;4956565;28;20269;-81
2023/02/20 10:32:18;;;;;;;20.20;5.70;;;;;;;;;;4956822;29;20241;-81
2023/02/20 10:34:50;;;;;;;13.53;6.00;;;;;;;;;;4956848;29;20199;-81
2023/02/20 10:37:19;;;;;;;14.23;6.87;;;;;;;;;;4956686;29;20230;-80
2023/02/20 10:39:50;;;;;;;20.23;6.73;;;;;;;;;;4956648;29;20245;-81
2023/02/20 10:42:22;;;;;;;19.40;6.27;;;;;;;;;;4956846;29;20285;-82
2023/02/20 10:44:53;;;;;;;12.97;7.23;;;;;;;;;;4956497;29;20234;-81
2023/02/20 10:47:23;;;;;;;12.03;6.23;;;;;;;;;;4956180;29;20326;-81
2023/02/20 10:49:53;;;;;;;17.17;9.93;;;;;;;;;;4956226;28;20230;-81
2023/02/20 10:52:23;;;;;;;13.57;7.30;;;;;;;;;;4956531;29;20235;-82
2023/02/20 10:54:56;;;;;;;14.60;5.93;;;;;;;;;;4956740;29;20207;-82
2023/02/20 10:57:24;;;;;;;9.83;6.33;;;;;;;;;;4956379;29;20207;-81
2023/02/20 10:59:54;;;;;;;9.27;6.10;;;;;;;;;;4956145;29;20644;-81
2023/02/20 11:02:25;;;;;;;11.70;5.90;;;;;;;;;;4956681;29;20206;-81
2023/02/20 11:04:55;;;;;;;9.53;5.57;;;;;;;;;;4956554;29;20289;-82
2023/02/20 11:07:22;;;;;;;9.70;5.80;;;;;;;;;;4956080;28;20751;-82
2023/02/20 11:09:50;;;;;;;8.30;5.53;;;;;;;;;;4956209;28;20314;-81
2023/02/20 11:12:23;;;;;;;11.47;6.53;;;;;;;;;;4956233;28;20615;-82
2023/02/20 11:14:51;;;;;;;9.57;6.53;;;;;;;;;;4955683;29;20312;-82
2023/02/20 11:17:20;;;;;;;8.03;6.03;;;;;;;;;;4956484;29;20676;-81
2023/02/20 11:19:48;;;;;;;9.53;6.33;;;;;;;;;;4956200;28;20298;-81
2023/02/20 11:22:16;;;;;;;7.90;6.13;;;;;;;;;;4956205;28;20270;-82
2023/02/20 11:24:43;;;;;;;7.90;6.47;;;;;;;;;;4955954;28;20234;-82
2023/02/20 11:27:12;;;;;;;11.97;6.60;;;;;;;;;;4956005;29;20231;-81
2023/02/20 11:29:44;;;;;;;9.83;6.50;;;;;;;;;;4955924;29;20333;-82
2023/02/20 11:32:30;;;;;;;9.47;6.20;;;;;;;;;;4955281;28;20204;-82
2023/02/20 11:35:05;;;;;;;9.20;6.93;;;;;;;;;;4954601;28;20767;-81
2023/02/20 11:37:33;;;;;;;10.13;7.03;;;;;;;;;;4955647;29;20754;-83
2023/02/20 11:40:01;;;;;;;10.80;7.77;;;;;;;;;;4956052;28;20207;-81
2023/02/20 11:42:34;;;;;;;10.33;7.43;;;;;;;;;;4955276;29;20237;-80
2023/02/20 11:45:14;;;;;;;12.10;9.40;;;;;;;;;;4955487;29;20205;-81
2023/02/20 11:47:41;;;;;;;14.97;9.67;;;;;;;;;;4955502;29;20622;-81
2023/02/20 11:50:16;;;;;;;15.57;9.70;;;;;;;;;;4955418;28;20284;-82
2023/02/20 11:52:57;;;;;;;13.37;9.57;;;;;;;;;;4955440;28;20203;-82
2023/02/20 11:55:26;;;;;;;16.27;10.50;;;;;;;;;;4955445;28;20218;-82
2023/02/20 11:57:53;;;;;;;12.93;10.43;;;;;;;;;;4955182;28;20203;-82
2023/02/20 12:00:23;;;;;;;15.13;9.97;;;;;;;;;;4955239;28;20668;-82
2023/02/20 12:02:51;;;;;;;15.47;10.10;;;;;;;;;;4955384;29;20282;-82
2023/02/20 12:05:20;;;;;;;14.53;11.03;;;;;;;;;;4955524;28;20203;-82
2023/02/20 12:07:55;;;;;;;14.33;10.10;;;;;;;;;;4955235;29;20203;-82
2023/02/20 12:10:35;;;;;;;16.90;10.63;;;;;;;;;;4955075;29;20330;-81
2023/02/20 12:13:03;;;;;;;14.83;10.50;;;;;;;;;;4954737;28;20294;-81
2023/02/20 12:15:32;;;;;;;13.00;10.57;;;;;;;;;;4955411;28;20223;-82
2023/02/20 12:18:17;;;;;;;15.10;11.70;;;;;;;;;;4954966;28;20258;-81
2023/02/20 12:20:49;;;;;;;17.13;10.70;;;;;;;;;;4954861;28;20675;-82
2023/02/20 12:23:19;;;;;;;15.10;11.17;;;;;;;;;;4954863;28;20199;-82
2023/02/20 12:25:55;;;;;;;15.67;11.07;;;;;;;;;;4954825;29;20223;-83
2023/02/20 12:28:25;;;;;;;18.47;11.87;;;;;;;;;;4954639;29;20297;-83
2023/02/20 12:31:00;;;;;;;22.60;14.47;;;;;;;;;;4954769;28;20295;-82
2023/02/20 12:33:51;;;;;;;25.60;15.63;;;;;;;;;;4954812;29;20285;-82
2023/02/20 12:36:24;;;;;;;25.73;16.87;;;;;;;;;;4931044;29;20684;-82
2023/02/20 12:38:56;;;;;;;26.07;17.27;;;;;;;;;;4954370;29;20253;-82
2023/02/20 12:41:32;;;;;;;21.73;14.17;;;;;;;;;;4954239;29;20669;-81
2023/02/20 12:44:05;;;;;;;19.43;13.83;;;;;;;;;;4954767;29;20282;-83
2023/02/20 12:46:38;;;;;;;18.63;13.30;;;;;;;;;;4953442;28;20262;-83
2023/02/20 12:49:16;;;;;;;19.50;12.67;;;;;;;;;;4954806;28;20231;-82
2023/02/20 12:51:48;;;;;;;21.27;13.77;;;;;;;;;;4954236;29;20203;-82
2023/02/20 12:54:24;;;;;;;22.57;14.33;;;;;;;;;;4954274;29;20695;-82
2023/02/20 12:56:59;;;;;;;20.17;12.90;;;;;;;;;;4954113;29;20245;-83
2023/02/20 12:59:29;;;;;;;17.20;10.70;;;;;;;;;;4953883;28;20753;-82
2023/02/20 13:02:00;;;;;;;13.23;9.43;;;;;;;;;;4954662;29;20201;-83
2023/02/20 13:04:29;;;;;;;14.20;8.70;;;;;;;;;;4953986;28;20230;-82
2023/02/20 13:07:00;;;;;;;14.87;9.67;;;;;;;;;;4953925;28;20320;-82
2023/02/20 13:09:30;;;;;;;14.10;9.47;;;;;;;;;;4953511;29;20701;-83
2023/02/20 13:12:02;;;;;;;13.10;9.20;;;;;;;;;;4954058;28;20209;-83
2023/02/20 13:14:32;;;;;;;10.30;8.40;;;;;;;;;;4954090;29;20728;-82
2023/02/20 13:17:04;;;;;;;10.73;8.13;;;;;;;;;;4953963;29;20231;-83
2023/02/20 13:19:33;;;;;;;11.83;8.00;;;;;;;;;;4953891;29;20241;-82
2023/02/20 13:22:01;;;;;;;12.73;8.23;;;;;;;;;;4946313;29;20231;-82
2023/02/20 13:24:29;;;;;;;10.27;7.90;;;;;;;;;;4953770;29;20290;-82
2023/02/20 13:26:58;;;;;;;12.03;7.97;;;;;;;;;;4953880;29;20222;-83
2023/02/20 13:29:26;;;;;;;12.13;7.93;;;;;;;;;;4954451;29;20266;-82
2023/02/20 13:31:54;;;;;;;12.20;7.80;;;;;;;;;;4953650;29;20254;-84
2023/02/20 13:34:30;;;;;;;11.30;7.80;;;;;;;;;;4953612;28;20282;-83
2023/02/20 13:36:57;;;;;;;12.50;7.73;;;;;;;;;;4953615;28;20198;-83
2023/02/20 13:39:45;;;;;;;12.80;7.93;;;;;;;;;;4952925;28;20223;-83
2023/02/20 13:42:30;;;;;;;14.00;7.53;;;;;;;;;;4953765;28;20242;-82
2023/02/20 13:44:59;;;;;;;12.23;7.70;;;;;;;;;;4953757;29;20270;-82
2023/02/20 13:47:37;;;;;;;10.80;7.30;;;;;;;;;;4953107;28;20720;-83
2023/02/20 13:50:23;;;;;;;11.53;7.50;;;;;;;;;;4953763;28;20238;-83
2023/02/20 13:52:55;;;;;;;10.97;7.47;;;;;;;;;;4954858;29;20230;-83
2023/02/20 13:55:23;;;;;;;12.27;8.03;;;;;;;;;;4955283;28;20296;-83
2023/02/20 13:57:52;;;;;;;12.03;8.47;;;;;;;;;;4953409;28;20718;-82
2023/02/20 14:00:31;;;;;;;11.20;8.13;;;;;;;;;;4953821;29;20200;-82
2023/02/20 14:02:59;;;;;;;10.70;7.33;;;;;;;;;;4953137;29;20245;-83
2023/02/20 14:05:28;;;;;;;12.17;8.07;;;;;;;;;;4953726;29;20231;-83
2023/02/20 14:07:56;;;;;;;10.87;6.90;;;;;;;;;;4953053;28;20209;-82
2023/02/20 14:10:28;;;;;;;14.30;8.07;;;;;;;;;;4953223;29;20254;-82
2023/02/20 14:13:01;;;;;;;12.53;7.97;;;;;;;;;;4959819;28;20298;-83
2023/02/20 14:15:29;;;;;;;9.50;7.87;;;;;;;;;;4972770;28;20293;-83
2023/02/20 14:17:57;;;;;;;11.17;7.33;;;;;;;;;;4972711;28;20202;-83
2023/02/20 14:20:25;;;;;;;11.83;7.93;;;;;;;;;;4972587;28;20286;-83
2023/02/20 14:23:19;;;;;;;13.53;8.57;;;;;;;;;;4972761;28;20234;-83
2023/02/20 14:25:53;;;;;;;11.77;7.90;;;;;;;;;;4972350;28;20195;-83
2023/02/20 14:28:20;;;;;;;11.80;7.67;;;;;;;;;;4972446;28;20632;-83
2023/02/20 14:30:47;;;;;;;14.40;9.33;;;;;;;;;;4972283;28;20856;-83
2023/02/20 14:33:24;;;;;;;14.93;8.77;;;;;;;;;;4972486;28;20615;-85
2023/02/20 14:35:59;;;;;;;10.53;8.00;;;;;;;;;;4972247;28;20268;-83
2023/02/20 14:38:34;;;;;;;11.37;7.57;;;;;;;;;;4971809;28;20675;-83
2023/02/20 14:41:01;;;;;;;13.13;7.63;;;;;;;;;;4972323;28;20289;-83
2023/02/20 14:43:29;;;;;;;11.37;7.23;;;;;;;;;;4972714;28;20242;-84
2023/02/20 14:46:02;;;;;;;14.33;8.27;;;;;;;;;;4971895;28;20230;-83
2023/02/20 14:48:30;;;;;;;12.43;8.13;;;;;;;;;;4972259;28;20198;-83
2023/02/20 14:51:08;;;;;;;12.10;8.70;;;;;;;;;;4971618;28;20778;-84
2023/02/20 14:53:37;;;;;;;14.33;8.90;;;;;;;;;;4972538;28;20199;-83
2023/02/20 14:56:11;;;;;;;15.40;9.33;;;;;;;;;;4972108;28;20203;-84